createdAt,value
2017-10-31T00:00:03.723Z,1024.21
2017-10-31T00:01:03.713Z,1024.20
2017-10-31T00:02:03.706Z,1024.24
2017-10-31T00:03:03.700Z,1024.19
2017-10-31T00:04:03.692Z,1024.20
2017-10-31T00:05:03.682Z,1024.17
2017-10-31T00:06:03.679Z,1024.16
2017-10-31T00:07:03.669Z,1024.07
2017-10-31T00:08:03.663Z,1024.07
2017-10-31T00:09:03.655Z,1024.11
2017-10-31T00:10:03.649Z,1024.08
2017-10-31T00:11:03.643Z,1024.08
2017-10-31T00:12:03.633Z,1024.13
2017-10-31T00:13:03.631Z,1024.12
2017-10-31T00:14:03.626Z,1024.13
2017-10-31T00:15:03.619Z,1024.11
2017-10-31T00:16:03.612Z,1024.11
2017-10-31T00:17:03.606Z,1024.09
2017-10-31T00:18:03.599Z,1024.10
2017-10-31T00:19:03.592Z,1024.11
2017-10-31T00:20:03.585Z,1024.09
2017-10-31T00:21:03.574Z,1024.09
2017-10-31T00:22:03.567Z,1024.06
2017-10-31T00:23:03.564Z,1024.05
2017-10-31T00:24:03.554Z,1024.08
2017-10-31T00:25:03.547Z,1024.04
2017-10-31T00:26:03.542Z,1024.08
2017-10-31T00:27:03.546Z,1024.04
2017-10-31T00:28:03.527Z,1024.01
2017-10-31T00:29:03.524Z,1023.99
2017-10-31T00:30:03.517Z,1024.03
2017-10-31T00:31:03.512Z,1024.05
2017-10-31T00:32:03.504Z,1024.04
2017-10-31T00:33:03.495Z,1024.07
2017-10-31T00:34:03.487Z,1024.06
2017-10-31T00:35:03.481Z,1024.09
2017-10-31T00:36:03.474Z,1024.11
2017-10-31T00:37:03.471Z,1024.10
2017-10-31T00:38:03.465Z,1024.10
2017-10-31T00:39:03.458Z,1024.09
2017-10-31T00:40:03.454Z,1024.15
2017-10-31T00:41:03.445Z,1024.08
2017-10-31T00:42:03.438Z,1024.03
2017-10-31T00:43:03.432Z,1024.05
2017-10-31T00:44:03.425Z,1024.07
2017-10-31T00:45:03.413Z,1024.06
2017-10-31T00:46:03.407Z,1024.11
2017-10-31T00:47:03.413Z,1024.12
2017-10-31T00:48:03.394Z,1024.19
2017-10-31T00:49:03.388Z,1024.12
2017-10-31T00:50:03.381Z,1024.10
2017-10-31T00:51:03.375Z,1024.03
2017-10-31T00:52:03.368Z,1024.01
2017-10-31T00:53:03.366Z,1024.02
2017-10-31T00:54:03.359Z,1024.01
2017-10-31T00:55:03.353Z,1023.98
2017-10-31T00:56:03.345Z,1024.01
2017-10-31T00:57:03.339Z,1023.96
2017-10-31T00:58:03.348Z,1023.98
2017-10-31T00:59:03.327Z,1023.95
2017-10-31T01:00:03.321Z,1023.92
2017-10-31T01:01:03.308Z,1023.95
2017-10-31T01:02:03.301Z,1023.95
2017-10-31T01:03:03.300Z,1023.95
2017-10-31T01:04:03.293Z,1023.97
2017-10-31T01:05:03.281Z,1023.90
2017-10-31T01:06:03.275Z,1023.89
2017-10-31T01:07:03.269Z,1023.89
2017-10-31T01:08:03.261Z,1023.83
2017-10-31T01:09:03.258Z,1023.95
2017-10-31T01:10:03.254Z,1023.96
2017-10-31T01:11:03.247Z,1023.95
2017-10-31T01:12:03.240Z,1024.04
2017-10-31T01:13:03.236Z,1024.03
2017-10-31T01:14:03.231Z,1024.03
2017-10-31T01:15:03.220Z,1024.00
2017-10-31T01:16:03.213Z,1023.97
2017-10-31T01:17:03.201Z,1023.96
2017-10-31T01:18:03.196Z,1023.90
2017-10-31T01:19:03.189Z,1023.84
2017-10-31T01:20:03.182Z,1023.87
2017-10-31T01:21:03.176Z,1023.90
2017-10-31T01:22:03.171Z,1023.90
2017-10-31T01:23:03.163Z,1023.91
2017-10-31T01:24:03.154Z,1023.98
2017-10-31T01:25:03.153Z,1023.95
2017-10-31T01:26:03.146Z,1023.91
2017-10-31T01:27:03.140Z,1023.89
2017-10-31T01:28:03.132Z,1023.87
2017-10-31T01:29:03.126Z,1023.84
2017-10-31T01:30:03.121Z,1023.77
2017-10-31T01:31:03.113Z,1023.78
2017-10-31T01:32:03.106Z,1023.77
2017-10-31T01:33:03.095Z,1023.74
2017-10-31T01:34:03.088Z,1023.81
2017-10-31T01:35:03.084Z,1023.74
2017-10-31T01:36:03.074Z,1023.74
2017-10-31T01:37:03.073Z,1023.73
2017-10-31T01:38:03.065Z,1023.72
2017-10-31T01:39:03.064Z,1023.73
2017-10-31T01:40:03.053Z,1023.80
2017-10-31T01:41:03.042Z,1023.76
2017-10-31T01:42:03.045Z,1023.73
2017-10-31T01:43:03.029Z,1023.74
2017-10-31T01:44:03.021Z,1023.76
2017-10-31T01:45:03.015Z,1023.78
2017-10-31T01:46:03.008Z,1023.69
2017-10-31T01:47:03.013Z,1023.73
2017-10-31T01:48:02.995Z,1023.75
2017-10-31T01:49:02.994Z,1023.79
2017-10-31T01:50:02.986Z,1023.78
2017-10-31T01:51:02.980Z,1023.73
2017-10-31T01:52:02.972Z,1023.75
2017-10-31T01:53:02.967Z,1023.74
2017-10-31T01:54:02.960Z,1023.76
2017-10-31T01:55:02.952Z,1023.73
2017-10-31T01:56:02.945Z,1023.74
2017-10-31T01:57:02.936Z,1023.70
2017-10-31T01:58:02.934Z,1023.67
2017-10-31T01:59:02.923Z,1023.73
2017-10-31T02:00:02.916Z,1023.68
2017-10-31T02:01:02.908Z,1023.64
2017-10-31T02:02:02.902Z,1023.66
2017-10-31T02:03:02.897Z,1023.68
2017-10-31T02:04:02.891Z,1023.63
2017-10-31T02:05:02.885Z,1023.62
2017-10-31T02:06:02.880Z,1023.60
2017-10-31T02:07:02.874Z,1023.60
2017-10-31T02:08:02.865Z,1023.57
2017-10-31T02:09:02.860Z,1023.60
2017-10-31T02:10:02.853Z,1023.57
2017-10-31T02:11:02.846Z,1023.57
2017-10-31T02:12:02.840Z,1023.57
2017-10-31T02:13:02.832Z,1023.59
2017-10-31T02:14:02.822Z,1023.55
2017-10-31T02:15:02.816Z,1023.55
2017-10-31T02:16:02.809Z,1023.57
2017-10-31T02:17:02.801Z,1023.52
2017-10-31T02:18:02.795Z,1023.54
2017-10-31T02:19:02.790Z,1023.53
2017-10-31T02:20:02.780Z,1023.52
2017-10-31T02:21:02.779Z,1023.52
2017-10-31T02:22:02.773Z,1023.49
2017-10-31T02:23:02.766Z,1023.50
2017-10-31T02:24:02.758Z,1023.53
2017-10-31T02:25:02.754Z,1023.49
2017-10-31T02:26:02.745Z,1023.51
2017-10-31T02:27:02.739Z,1023.52
2017-10-31T02:28:02.730Z,1023.53
2017-10-31T02:29:02.720Z,1023.53
2017-10-31T02:30:02.714Z,1023.55
2017-10-31T02:31:02.717Z,1023.54
2017-10-31T02:32:02.700Z,1023.51
2017-10-31T02:33:02.693Z,1023.53
2017-10-31T02:34:02.691Z,1023.46
2017-10-31T02:35:02.681Z,1023.49
2017-10-31T02:36:02.672Z,1023.49
2017-10-31T02:37:02.680Z,1023.51
2017-10-31T02:38:02.664Z,1023.51
2017-10-31T02:39:02.657Z,1023.50
2017-10-31T02:40:02.651Z,1023.49
2017-10-31T02:41:02.639Z,1023.48
2017-10-31T02:42:02.632Z,1023.46
2017-10-31T02:43:02.626Z,1023.51
2017-10-31T02:44:02.619Z,1023.41
2017-10-31T02:45:02.615Z,1023.42
2017-10-31T02:46:02.609Z,1023.42
2017-10-31T02:47:02.601Z,1023.44
2017-10-31T02:48:02.595Z,1023.43
2017-10-31T02:49:02.587Z,1023.42
2017-10-31T02:50:02.584Z,1023.41
2017-10-31T02:51:02.574Z,1023.44
2017-10-31T02:52:02.571Z,1023.39
2017-10-31T02:53:02.555Z,1023.38
2017-10-31T02:54:02.551Z,1023.38
2017-10-31T02:55:02.542Z,1023.38
2017-10-31T02:56:02.535Z,1023.41
2017-10-31T02:57:02.529Z,1023.36
2017-10-31T02:58:02.527Z,1023.40
2017-10-31T02:59:02.515Z,1023.41
2017-10-31T03:00:02.508Z,1023.42
2017-10-31T03:01:02.505Z,1023.42
2017-10-31T03:02:02.497Z,1023.38
2017-10-31T03:03:02.490Z,1023.41
2017-10-31T03:04:02.484Z,1023.42
2017-10-31T03:05:02.478Z,1023.46
2017-10-31T03:06:02.470Z,1023.50
2017-10-31T03:07:02.463Z,1023.41
2017-10-31T03:08:02.456Z,1023.48
2017-10-31T03:09:02.444Z,1023.52
2017-10-31T03:10:02.438Z,1023.46
2017-10-31T03:11:02.432Z,1023.50
2017-10-31T03:12:02.422Z,1023.54
2017-10-31T03:13:02.416Z,1023.51
2017-10-31T03:14:02.411Z,1023.50
2017-10-31T03:15:02.404Z,1023.51
2017-10-31T03:16:02.396Z,1023.49
2017-10-31T03:17:02.394Z,1023.47
2017-10-31T03:18:02.394Z,1023.48
2017-10-31T03:19:02.381Z,1023.46
2017-10-31T03:20:02.373Z,1023.49
2017-10-31T03:21:02.365Z,1023.55
2017-10-31T03:22:02.359Z,1023.48
2017-10-31T03:23:02.352Z,1023.49
2017-10-31T03:24:02.345Z,1023.49
2017-10-31T03:25:02.335Z,1023.46
2017-10-31T03:26:02.327Z,1023.44
2017-10-31T03:27:02.321Z,1023.45
2017-10-31T03:28:02.313Z,1023.44
2017-10-31T03:29:02.306Z,1023.47
2017-10-31T03:30:02.299Z,1023.37
2017-10-31T03:31:02.297Z,1023.37
2017-10-31T03:32:02.285Z,1023.37
2017-10-31T03:33:02.283Z,1023.36
2017-10-31T03:34:02.276Z,1023.37
2017-10-31T03:35:02.271Z,1023.37
2017-10-31T03:36:02.261Z,1023.39
2017-10-31T03:37:02.254Z,1023.34
2017-10-31T03:38:02.248Z,1023.35
2017-10-31T03:39:02.241Z,1023.31
2017-10-31T03:40:02.242Z,1023.28
2017-10-31T03:41:02.221Z,1023.30
2017-10-31T03:42:02.216Z,1023.31
2017-10-31T03:43:02.210Z,1023.29
2017-10-31T03:44:02.203Z,1023.33
2017-10-31T03:45:02.199Z,1023.33
2017-10-31T03:46:02.205Z,1023.33
2017-10-31T03:47:02.186Z,1023.37
2017-10-31T03:48:02.178Z,1023.38
2017-10-31T03:49:02.167Z,1023.42
2017-10-31T03:50:02.161Z,1023.44
2017-10-31T03:51:02.154Z,1023.44
2017-10-31T03:52:02.146Z,1023.40
2017-10-31T03:53:02.158Z,1023.40
2017-10-31T03:54:02.132Z,1023.37
2017-10-31T03:55:02.128Z,1023.33
2017-10-31T03:56:02.118Z,1023.34
2017-10-31T03:57:02.116Z,1023.35
2017-10-31T03:58:02.109Z,1023.32
2017-10-31T03:59:02.100Z,1023.34
2017-10-31T04:00:02.093Z,1023.34
2017-10-31T04:01:02.090Z,1023.35
2017-10-31T04:02:02.080Z,1023.30
2017-10-31T04:03:02.072Z,1023.28
2017-10-31T04:04:02.063Z,1023.27
2017-10-31T04:05:02.054Z,1023.29
2017-10-31T04:06:02.047Z,1023.30
2017-10-31T04:07:02.039Z,1023.28
2017-10-31T04:08:02.031Z,1023.32
2017-10-31T04:09:02.023Z,1023.36
2017-10-31T04:10:02.017Z,1023.35
2017-10-31T04:11:02.009Z,1023.38
2017-10-31T04:12:02.003Z,1023.36
2017-10-31T04:13:01.999Z,1023.32
2017-10-31T04:14:01.993Z,1023.37
2017-10-31T04:15:01.987Z,1023.41
2017-10-31T04:16:01.978Z,1023.39
2017-10-31T04:17:01.971Z,1023.39
2017-10-31T04:18:01.965Z,1023.39
2017-10-31T04:19:01.958Z,1023.28
2017-10-31T04:20:01.951Z,1023.33
2017-10-31T04:21:01.938Z,1023.30
2017-10-31T04:22:01.936Z,1023.31
2017-10-31T04:23:01.925Z,1023.29
2017-10-31T04:24:01.917Z,1023.29
2017-10-31T04:25:01.911Z,1023.31
2017-10-31T04:26:01.905Z,1023.34
2017-10-31T04:27:01.898Z,1023.34
2017-10-31T04:28:01.889Z,1023.35
2017-10-31T04:29:01.887Z,1023.34
2017-10-31T04:30:01.881Z,1023.34
2017-10-31T04:31:01.873Z,1023.42
2017-10-31T04:32:01.866Z,1023.38
2017-10-31T04:33:01.859Z,1023.38
2017-10-31T04:34:01.851Z,1023.34
2017-10-31T04:35:01.845Z,1023.34
2017-10-31T04:36:01.836Z,1023.37
2017-10-31T04:37:01.828Z,1023.36
2017-10-31T04:38:01.822Z,1023.41
2017-10-31T04:39:01.813Z,1023.41
2017-10-31T04:40:01.807Z,1023.42
2017-10-31T04:41:01.799Z,1023.41
2017-10-31T04:42:01.793Z,1023.41
2017-10-31T04:43:01.786Z,1023.37
2017-10-31T04:44:01.779Z,1023.34
2017-10-31T04:45:01.774Z,1023.37
2017-10-31T04:46:01.769Z,1023.34
2017-10-31T04:47:01.761Z,1023.34
2017-10-31T04:48:01.755Z,1023.28
2017-10-31T04:49:01.744Z,1023.31
2017-10-31T04:50:01.736Z,1023.32
2017-10-31T04:51:01.730Z,1023.25
2017-10-31T04:52:01.724Z,1023.24
2017-10-31T04:53:01.720Z,1023.26
2017-10-31T04:54:01.714Z,1023.22
2017-10-31T04:55:01.709Z,1023.17
2017-10-31T04:56:01.700Z,1023.21
2017-10-31T04:57:01.693Z,1023.17
2017-10-31T04:58:01.687Z,1023.13
2017-10-31T04:59:01.680Z,1023.13
2017-10-31T05:00:01.673Z,1023.13
2017-10-31T05:01:01.663Z,1023.13
2017-10-31T05:02:01.656Z,1023.12
2017-10-31T05:03:01.649Z,1023.11
2017-10-31T05:04:01.647Z,1023.08
2017-10-31T05:05:01.634Z,1023.10
2017-10-31T05:06:01.629Z,1023.08
2017-10-31T05:07:01.625Z,1023.09
2017-10-31T05:08:01.615Z,1023.04
2017-10-31T05:09:01.613Z,1023.05
2017-10-31T05:10:01.606Z,1023.02
2017-10-31T05:11:01.600Z,1023.01
2017-10-31T05:12:01.591Z,1023.03
2017-10-31T05:13:01.584Z,1023.01
2017-10-31T05:14:01.578Z,1023.03
2017-10-31T05:15:01.572Z,1022.99
2017-10-31T05:16:01.564Z,1022.98
2017-10-31T05:17:01.554Z,1022.96
2017-10-31T05:18:01.548Z,1022.93
2017-10-31T05:19:01.541Z,1022.92
2017-10-31T05:20:01.533Z,1022.94
2017-10-31T05:21:01.527Z,1022.91
2017-10-31T05:22:01.520Z,1022.95
2017-10-31T05:23:01.515Z,1022.93
2017-10-31T05:24:01.506Z,1022.95
2017-10-31T05:25:01.504Z,1022.92
2017-10-31T05:26:01.497Z,1022.92
2017-10-31T05:27:01.490Z,1022.97
2017-10-31T05:28:01.482Z,1022.92
2017-10-31T05:29:01.475Z,1022.95
2017-10-31T05:30:01.470Z,1022.96
2017-10-31T05:31:01.462Z,1022.96
2017-10-31T05:32:01.455Z,1022.97
2017-10-31T05:33:01.445Z,1022.94
2017-10-31T05:34:01.438Z,1022.96
2017-10-31T05:35:01.433Z,1023.01
2017-10-31T05:36:01.424Z,1022.99
2017-10-31T05:37:01.418Z,1023.02
2017-10-31T05:38:01.412Z,1022.98
2017-10-31T05:39:01.405Z,1023.01
2017-10-31T05:40:01.397Z,1022.98
2017-10-31T05:41:01.395Z,1023.00
2017-10-31T05:42:01.388Z,1022.95
2017-10-31T05:43:01.381Z,1022.88
2017-10-31T05:44:01.375Z,1022.93
2017-10-31T05:45:01.369Z,1022.96
2017-10-31T05:46:01.363Z,1022.90
2017-10-31T05:47:01.356Z,1022.93
2017-10-31T05:48:01.347Z,1022.93
2017-10-31T05:49:01.338Z,1022.96
2017-10-31T05:50:01.331Z,1022.92
2017-10-31T05:51:01.324Z,1022.93
2017-10-31T05:52:01.316Z,1022.92
2017-10-31T05:53:01.314Z,1022.93
2017-10-31T05:54:01.308Z,1022.95
2017-10-31T05:55:01.302Z,1022.90
2017-10-31T05:56:01.301Z,1022.92
2017-10-31T05:57:01.284Z,1022.93
2017-10-31T05:58:01.277Z,1022.87
2017-10-31T05:59:01.271Z,1022.88
2017-10-31T06:00:01.262Z,1022.85
2017-10-31T06:01:01.255Z,1022.88
2017-10-31T06:02:01.251Z,1022.88
2017-10-31T06:03:01.242Z,1022.86
2017-10-31T06:04:01.236Z,1022.93
2017-10-31T06:05:01.233Z,1022.95
2017-10-31T06:06:01.231Z,1022.97
2017-10-31T06:07:01.220Z,1022.96
2017-10-31T06:08:01.212Z,1022.95
2017-10-31T06:09:01.206Z,1022.96
2017-10-31T06:10:01.205Z,1022.98
2017-10-31T06:11:01.194Z,1022.99
2017-10-31T06:12:01.189Z,1022.95
2017-10-31T06:13:01.177Z,1022.97
2017-10-31T06:14:01.173Z,1022.92
2017-10-31T06:15:01.162Z,1023.00
2017-10-31T06:16:01.155Z,1022.97
2017-10-31T06:17:01.149Z,1022.96
2017-10-31T06:18:01.143Z,1022.96
2017-10-31T06:19:01.137Z,1022.98
2017-10-31T06:20:01.129Z,1022.98
2017-10-31T06:21:01.126Z,1023.02
2017-10-31T06:22:01.120Z,1023.03
2017-10-31T06:23:01.114Z,1023.04
2017-10-31T06:24:01.106Z,1023.02
2017-10-31T06:25:01.101Z,1023.03
2017-10-31T06:26:01.092Z,1023.07
2017-10-31T06:27:01.087Z,1023.08
2017-10-31T06:28:01.079Z,1023.08
2017-10-31T06:29:01.069Z,1023.03
2017-10-31T06:30:01.062Z,1023.03
2017-10-31T06:31:01.056Z,1023.06
2017-10-31T06:32:01.049Z,1023.09
2017-10-31T06:33:01.042Z,1023.07
2017-10-31T06:34:01.037Z,1023.09
2017-10-31T06:35:01.030Z,1023.10
2017-10-31T06:36:01.023Z,1023.09
2017-10-31T06:37:01.032Z,1023.14
2017-10-31T06:38:01.014Z,1023.10
2017-10-31T06:39:01.008Z,1023.15
2017-10-31T06:40:01.000Z,1023.08
2017-10-31T06:41:00.993Z,1023.15
2017-10-31T06:42:01.009Z,1023.15
2017-10-31T06:43:00.988Z,1023.10
2017-10-31T06:44:00.974Z,1023.16
2017-10-31T06:45:00.962Z,1023.16
2017-10-31T06:46:00.956Z,1023.13
2017-10-31T06:47:00.949Z,1023.15
2017-10-31T06:48:00.941Z,1023.20
2017-10-31T06:49:00.935Z,1023.19
2017-10-31T06:50:00.929Z,1023.16
2017-10-31T06:51:00.922Z,1023.18
2017-10-31T06:52:00.915Z,1023.21
2017-10-31T06:53:00.914Z,1023.23
2017-10-31T06:54:00.907Z,1023.19
2017-10-31T06:55:00.900Z,1023.19
2017-10-31T06:56:00.891Z,1023.20
2017-10-31T06:57:00.883Z,1023.30
2017-10-31T06:58:00.876Z,1023.28
2017-10-31T06:59:00.871Z,1023.31
2017-10-31T07:00:00.862Z,1023.35
2017-10-31T07:01:00.860Z,1023.34
2017-10-31T07:02:00.863Z,1023.37
2017-10-31T07:03:00.848Z,1023.32
2017-10-31T07:04:00.841Z,1023.29
2017-10-31T07:05:00.852Z,1023.29
2017-10-31T07:06:00.827Z,1023.28
2017-10-31T07:07:00.821Z,1023.27
2017-10-31T07:08:00.814Z,1023.23
2017-10-31T07:09:00.804Z,1023.25
2017-10-31T07:10:00.797Z,1023.25
2017-10-31T07:11:00.792Z,1023.21
2017-10-31T07:12:00.785Z,1023.23
2017-10-31T07:13:00.778Z,1023.23
2017-10-31T07:14:00.775Z,1023.26
2017-10-31T07:15:00.764Z,1023.25
2017-10-31T07:16:00.757Z,1023.28
2017-10-31T07:17:00.755Z,1023.28
2017-10-31T07:18:00.750Z,1023.28
2017-10-31T07:19:00.748Z,1023.32
2017-10-31T07:20:00.738Z,1023.31
2017-10-31T07:21:00.730Z,1023.31
2017-10-31T07:22:00.726Z,1023.38
2017-10-31T07:23:00.719Z,1023.34
2017-10-31T07:24:00.711Z,1023.36
2017-10-31T07:25:00.702Z,1023.36
2017-10-31T07:26:00.695Z,1023.40
2017-10-31T07:27:00.691Z,1023.40
2017-10-31T07:28:00.686Z,1023.40
2017-10-31T07:29:00.677Z,1023.45
2017-10-31T07:30:00.674Z,1023.48
2017-10-31T07:31:00.666Z,1023.49
2017-10-31T07:32:00.659Z,1023.50
2017-10-31T07:33:00.657Z,1023.48
2017-10-31T07:34:00.652Z,1023.39
2017-10-31T07:35:00.645Z,1023.42
2017-10-31T07:36:00.638Z,1023.36
2017-10-31T07:37:00.633Z,1023.28
2017-10-31T07:38:00.629Z,1023.36
2017-10-31T07:39:00.622Z,1023.38
2017-10-31T07:40:00.613Z,1023.36
2017-10-31T07:41:00.604Z,1023.47
2017-10-31T07:42:00.599Z,1023.49
2017-10-31T07:43:00.599Z,1023.46
2017-10-31T07:44:00.586Z,1023.52
2017-10-31T07:45:00.581Z,1023.57
2017-10-31T07:46:00.574Z,1023.48
2017-10-31T07:47:00.580Z,1023.43
2017-10-31T07:48:00.563Z,1023.38
2017-10-31T07:49:00.562Z,1023.40
2017-10-31T07:50:00.556Z,1023.41
2017-10-31T07:51:00.555Z,1023.40
2017-10-31T07:52:00.545Z,1023.41
2017-10-31T07:53:00.538Z,1023.39
2017-10-31T07:54:00.533Z,1023.39
2017-10-31T07:55:00.528Z,1023.39
2017-10-31T07:56:00.523Z,1023.44
2017-10-31T07:57:00.513Z,1023.47
2017-10-31T07:58:00.508Z,1023.49
2017-10-31T07:59:00.505Z,1023.42
2017-10-31T08:00:00.495Z,1023.41
2017-10-31T08:01:00.489Z,1023.47
2017-10-31T08:02:00.486Z,1023.45
2017-10-31T08:03:00.480Z,1023.44
2017-10-31T08:04:00.473Z,1023.41
2017-10-31T08:05:00.472Z,1023.41
2017-10-31T08:06:00.466Z,1023.41
2017-10-31T08:07:00.462Z,1023.45
2017-10-31T08:08:00.457Z,1023.45
2017-10-31T08:09:00.449Z,1023.44
2017-10-31T08:10:00.444Z,1023.44
2017-10-31T08:11:00.438Z,1023.42
2017-10-31T08:12:00.432Z,1023.43
2017-10-31T08:13:00.422Z,1023.41
2017-10-31T08:14:00.416Z,1023.40
2017-10-31T08:15:00.412Z,1023.40
2017-10-31T08:16:00.405Z,1023.38
2017-10-31T08:17:00.401Z,1023.38
2017-10-31T08:18:00.394Z,1023.36
2017-10-31T08:19:00.388Z,1023.35
2017-10-31T08:20:00.381Z,1023.34
2017-10-31T08:21:00.379Z,1023.36
2017-10-31T08:22:00.400Z,1023.36
2017-10-31T08:23:00.369Z,1023.39
2017-10-31T08:24:00.363Z,1023.39
2017-10-31T08:25:00.359Z,1023.42
2017-10-31T08:26:00.356Z,1023.40
2017-10-31T08:27:00.347Z,1023.44
2017-10-31T08:28:00.340Z,1023.44
2017-10-31T08:29:00.331Z,1023.47
2017-10-31T08:30:00.326Z,1023.40
2017-10-31T08:31:00.321Z,1023.42
2017-10-31T08:32:00.314Z,1023.43
2017-10-31T08:33:00.313Z,1023.47
2017-10-31T08:34:00.304Z,1023.47
2017-10-31T08:35:00.298Z,1023.47
2017-10-31T08:36:00.292Z,1023.42
2017-10-31T08:37:00.291Z,1023.40
2017-10-31T08:38:00.285Z,1023.35
2017-10-31T08:39:00.281Z,1023.41
2017-10-31T08:40:00.274Z,1023.37
2017-10-31T08:41:00.269Z,1023.28
2017-10-31T08:42:00.264Z,1023.36
2017-10-31T08:43:00.258Z,1023.31
2017-10-31T08:44:00.252Z,1023.32
2017-10-31T08:45:00.243Z,1023.37
2017-10-31T08:46:00.240Z,1023.32
2017-10-31T08:47:00.232Z,1023.40
2017-10-31T08:48:00.226Z,1023.35
2017-10-31T08:49:00.224Z,1023.32
2017-10-31T08:50:00.217Z,1023.30
2017-10-31T08:51:00.212Z,1023.32
2017-10-31T08:52:00.206Z,1023.34
2017-10-31T08:53:00.205Z,1023.29
2017-10-31T08:54:00.201Z,1023.30
2017-10-31T08:55:00.196Z,1023.33
2017-10-31T08:56:00.190Z,1023.27
2017-10-31T08:57:00.184Z,1023.30
2017-10-31T08:58:00.180Z,1023.30
2017-10-31T08:59:00.176Z,1023.32
2017-10-31T09:00:00.169Z,1023.30
2017-10-31T09:01:00.160Z,1023.30
2017-10-31T09:02:00.155Z,1023.30
2017-10-31T09:03:00.149Z,1023.35
2017-10-31T09:04:00.145Z,1023.38
2017-10-31T09:05:00.144Z,1023.42
2017-10-31T09:06:00.138Z,1023.37
2017-10-31T09:07:00.144Z,1023.40
2017-10-31T09:08:00.128Z,1023.40
2017-10-31T09:09:00.121Z,1023.39
2017-10-31T09:10:00.114Z,1023.38
2017-10-31T09:11:00.112Z,1023.37
2017-10-31T09:12:00.104Z,1023.33
2017-10-31T09:13:00.099Z,1023.33
2017-10-31T09:14:00.096Z,1023.33
2017-10-31T09:15:00.091Z,1023.31
2017-10-31T09:16:00.084Z,1023.31
2017-10-31T09:17:00.085Z,1023.35
2017-10-31T09:18:00.080Z,1023.36
2017-10-31T09:19:00.075Z,1023.29
2017-10-31T09:20:00.069Z,1023.34
2017-10-31T09:21:00.066Z,1023.29
2017-10-31T09:22:00.061Z,1023.31
2017-10-31T09:23:00.057Z,1023.25
2017-10-31T09:24:00.051Z,1023.31
2017-10-31T09:25:00.051Z,1023.26
2017-10-31T09:26:00.040Z,1023.30
2017-10-31T09:27:00.034Z,1023.31
2017-10-31T09:28:00.027Z,1023.33
2017-10-31T09:29:00.023Z,1023.31
2017-10-31T09:30:00.020Z,1023.32
2017-10-31T09:31:00.016Z,1023.32
2017-10-31T09:32:00.011Z,1023.29
2017-10-31T09:33:00.009Z,1023.26
2017-10-31T09:34:00.007Z,1023.17
2017-10-31T09:35:00.001Z,1023.20
2017-10-31T09:35:59.997Z,1023.21
2017-10-31T09:36:59.993Z,1023.20
2017-10-31T09:37:59.988Z,1023.25
2017-10-31T09:38:59.986Z,1023.20
2017-10-31T09:39:59.979Z,1023.24
2017-10-31T09:40:59.969Z,1023.28
2017-10-31T09:41:59.967Z,1023.30
2017-10-31T09:42:59.965Z,1023.23
2017-10-31T09:43:59.958Z,1023.27
2017-10-31T09:44:59.954Z,1023.29
2017-10-31T09:45:59.949Z,1023.27
2017-10-31T09:46:59.945Z,1023.27
2017-10-31T09:47:59.941Z,1023.28
2017-10-31T09:48:59.952Z,1023.29
2017-10-31T09:49:59.936Z,1023.33
2017-10-31T09:50:59.934Z,1023.30
2017-10-31T09:51:59.928Z,1023.35
2017-10-31T09:52:59.925Z,1023.28
2017-10-31T09:53:59.922Z,1023.31
2017-10-31T09:54:59.918Z,1023.26
2017-10-31T09:55:59.913Z,1023.34
2017-10-31T09:56:59.905Z,1023.34
2017-10-31T09:57:59.902Z,1023.41
2017-10-31T09:58:59.898Z,1023.35
2017-10-31T09:59:59.892Z,1023.35
2017-10-31T10:00:59.891Z,1023.39
2017-10-31T10:01:59.887Z,1023.47
2017-10-31T10:02:59.883Z,1023.41
2017-10-31T10:03:59.878Z,1023.40
2017-10-31T10:04:59.880Z,1023.40
2017-10-31T10:05:59.877Z,1023.42
2017-10-31T10:06:59.874Z,1023.34
2017-10-31T10:07:59.870Z,1023.34
2017-10-31T10:08:59.867Z,1023.32
2017-10-31T10:09:59.859Z,1023.31
2017-10-31T10:10:59.857Z,1023.26
2017-10-31T10:11:59.854Z,1023.23
2017-10-31T10:12:59.855Z,1023.22
2017-10-31T10:13:59.855Z,1023.22
2017-10-31T10:14:59.851Z,1023.19
2017-10-31T10:15:59.849Z,1023.19
2017-10-31T10:16:59.847Z,1023.19
2017-10-31T10:17:59.850Z,1023.20
2017-10-31T10:18:59.842Z,1023.11
2017-10-31T10:19:59.840Z,1023.12
2017-10-31T10:20:59.833Z,1023.07
2017-10-31T10:21:59.831Z,1023.19
2017-10-31T10:22:59.830Z,1023.19
2017-10-31T10:23:59.826Z,1023.15
2017-10-31T10:24:59.824Z,1023.18
2017-10-31T10:25:59.822Z,1023.20
2017-10-31T10:26:59.819Z,1023.21
2017-10-31T10:27:59.815Z,1023.19
2017-10-31T10:28:59.819Z,1023.21
2017-10-31T10:29:59.816Z,1023.19
2017-10-31T10:30:59.814Z,1023.18
2017-10-31T10:31:59.832Z,1023.17
2017-10-31T10:32:59.831Z,1023.15
2017-10-31T10:33:59.806Z,1023.08
2017-10-31T10:34:59.804Z,1023.09
2017-10-31T10:35:59.801Z,1023.04
2017-10-31T10:36:59.795Z,1023.03
2017-10-31T10:37:59.792Z,1023.01
2017-10-31T10:38:59.788Z,1023.01
2017-10-31T10:39:59.786Z,1022.97
2017-10-31T10:40:59.784Z,1022.98
2017-10-31T10:41:59.783Z,1022.97
2017-10-31T10:42:59.782Z,1022.91
2017-10-31T10:43:59.777Z,1022.96
2017-10-31T10:44:59.779Z,1022.93
2017-10-31T10:45:59.776Z,1022.95
2017-10-31T10:46:59.775Z,1022.91
2017-10-31T10:47:59.773Z,1022.93
2017-10-31T10:48:59.770Z,1022.91
2017-10-31T10:49:59.768Z,1022.86
2017-10-31T10:50:59.783Z,1022.85
2017-10-31T10:51:59.761Z,1022.84
2017-10-31T10:52:59.759Z,1022.87
2017-10-31T10:53:59.753Z,1022.84
2017-10-31T10:54:59.754Z,1022.80
2017-10-31T10:55:59.751Z,1022.80
2017-10-31T10:56:59.762Z,1022.80
2017-10-31T10:57:59.745Z,1022.81
2017-10-31T10:58:59.744Z,1022.79
2017-10-31T10:59:59.742Z,1022.72
2017-10-31T11:00:59.748Z,1022.69
2017-10-31T11:01:59.741Z,1022.75
2017-10-31T11:02:59.739Z,1022.70
2017-10-31T11:03:59.739Z,1022.69
2017-10-31T11:04:59.735Z,1022.72
2017-10-31T11:05:59.732Z,1022.70
2017-10-31T11:06:59.730Z,1022.71
2017-10-31T11:07:59.726Z,1022.70
2017-10-31T11:08:59.725Z,1022.64
2017-10-31T11:09:59.727Z,1022.68
2017-10-31T11:10:59.719Z,1022.71
2017-10-31T11:11:59.714Z,1022.66
2017-10-31T11:12:59.718Z,1022.69
2017-10-31T11:13:59.715Z,1022.64
2017-10-31T11:14:59.714Z,1022.70
2017-10-31T11:15:59.710Z,1022.71
2017-10-31T11:16:59.705Z,1022.70
2017-10-31T11:17:59.702Z,1022.69
2017-10-31T11:18:59.701Z,1022.70
2017-10-31T11:19:59.698Z,1022.69
2017-10-31T11:20:59.695Z,1022.72
2017-10-31T11:21:59.693Z,1022.67
2017-10-31T11:22:59.693Z,1022.71
2017-10-31T11:23:59.689Z,1022.68
2017-10-31T11:24:59.691Z,1022.65
2017-10-31T11:25:59.689Z,1022.63
2017-10-31T11:26:59.691Z,1022.63
2017-10-31T11:27:59.685Z,1022.60
2017-10-31T11:28:59.683Z,1022.61
2017-10-31T11:29:59.682Z,1022.59
2017-10-31T11:30:59.680Z,1022.58
2017-10-31T11:31:59.677Z,1022.57
2017-10-31T11:32:59.672Z,1022.56
2017-10-31T11:33:59.675Z,1022.56
2017-10-31T11:34:59.669Z,1022.52
2017-10-31T11:35:59.665Z,1022.52
2017-10-31T11:36:59.668Z,1022.46
2017-10-31T11:37:59.662Z,1022.52
2017-10-31T11:38:59.661Z,1022.45
2017-10-31T11:39:59.657Z,1022.51
2017-10-31T11:40:59.660Z,1022.49
2017-10-31T11:41:59.661Z,1022.53
2017-10-31T11:42:59.657Z,1022.53
2017-10-31T11:43:59.656Z,1022.48
2017-10-31T11:44:59.652Z,1022.40
2017-10-31T11:45:59.652Z,1022.48
2017-10-31T11:46:59.649Z,1022.41
2017-10-31T11:47:59.647Z,1022.43
2017-10-31T11:48:59.645Z,1022.42
2017-10-31T11:49:59.641Z,1022.41
2017-10-31T11:50:59.640Z,1022.43
2017-10-31T11:51:59.637Z,1022.40
2017-10-31T11:52:59.637Z,1022.37
2017-10-31T11:53:59.640Z,1022.37
2017-10-31T11:54:59.631Z,1022.38
2017-10-31T11:55:59.632Z,1022.37
2017-10-31T11:56:59.633Z,1022.33
2017-10-31T11:57:59.630Z,1022.32
2017-10-31T11:58:59.630Z,1022.36
2017-10-31T11:59:59.630Z,1022.33
2017-10-31T12:00:59.628Z,1022.32
2017-10-31T12:01:59.625Z,1022.33
2017-10-31T12:02:59.625Z,1022.37
2017-10-31T12:03:59.623Z,1022.31
2017-10-31T12:04:59.617Z,1022.33